Time;durP1;ratioP1;P1;durP2;ratioP2;P2;SDS_P1;SDS_P2;PMS_P1;PMS_P2;Temp;Humidity;BMP_temperature;BMP_pressure;BME280_temperature;BME280_humidity;BME280_pressure;Samples;Min_cycle;Max_cycle;Signal;HPM_P1;HPM_P2
2022/07/27 00:00:55;;;;;;;;;;;29.00;71.50;;;;;;5089454;28;19912;-69
2022/07/27 00:03:22;;;;;;;;;;;28.90;71.60;;;;;;5090631;28;19910;-69
2022/07/27 00:05:48;;;;;;;;;;;28.90;71.80;;;;;;5090166;28;19969;-69
2022/07/27 00:08:13;;;;;;;;;;;28.90;71.90;;;;;;5090520;28;19919;-70
2022/07/27 00:10:40;;;;;;;;;;;28.90;71.70;;;;;;5090198;28;19908;-70
2022/07/27 00:13:06;;;;;;;;;;;29.00;71.60;;;;;;5088653;28;19904;-70
2022/07/27 00:15:33;;;;;;;;;;;29.10;71.40;;;;;;5091301;28;19904;-69
2022/07/27 00:17:59;;;;;;;;;;;29.10;71.20;;;;;;5094275;28;20035;-69
2022/07/27 00:20:29;;;;;;;;;;;29.00;71.50;;;;;;5093743;28;20346;-69
2022/07/27 00:22:54;;;;;;;;;;;28.90;71.60;;;;;;5094033;28;20320;-70
2022/07/27 00:25:20;;;;;;;;;;;29.00;71.90;;;;;;5094334;28;19904;-70
2022/07/27 00:27:46;;;;;;;;;;;29.00;72.10;;;;;;5093983;28;19908;-69
2022/07/27 00:30:12;;;;;;;;;;;28.90;72.00;;;;;;5094275;28;19987;-70
2022/07/27 00:32:38;;;;;;;;;;;28.90;71.70;;;;;;5093942;28;19904;-70
2022/07/27 00:35:04;;;;;;;;;;;28.90;71.60;;;;;;5094198;28;19970;-69
2022/07/27 00:37:30;;;;;;;;;;;28.80;71.50;;;;;;5093881;28;19957;-69
2022/07/27 00:39:56;;;;;;;;;;;28.80;71.40;;;;;;5093593;28;19903;-69
2022/07/27 00:42:26;;;;;;;;;;;28.70;71.30;;;;;;5094181;28;19908;-70
2022/07/27 00:44:53;;;;;;;;;;;28.80;71.60;;;;;;5093965;28;19943;-70
2022/07/27 00:47:19;;;;;;;;;;;28.80;71.70;;;;;;5093675;28;19912;-70
2022/07/27 00:49:45;;;;;;;;;;;28.70;71.60;;;;;;5093986;28;20020;-70
2022/07/27 00:52:11;;;;;;;;;;;28.80;71.70;;;;;;5093435;28;20004;-70
2022/07/27 00:54:37;;;;;;;;;;;28.80;71.90;;;;;;5093656;28;20339;-69
2022/07/27 00:57:03;;;;;;;;;;;28.80;72.30;;;;;;5093548;28;19904;-69
2022/07/27 00:59:29;;;;;;;;;;;28.70;72.30;;;;;;5093808;28;19968;-70
2022/07/27 01:01:54;;;;;;;;;;;28.80;72.10;;;;;;5093462;28;20225;-70
2022/07/27 01:04:20;;;;;;;;;;;28.80;71.90;;;;;;5093395;28;19927;-69
2022/07/27 01:06:46;;;;;;;;;;;28.80;71.80;;;;;;5093462;28;20367;-69
2022/07/27 01:11:57;;;;;;;;;;;28.70;72.10;;;;;;5093278;28;19915;-69
2022/07/27 01:14:23;;;;;;;;;;;28.70;72.10;;;;;;5093099;28;20390;-69
2022/07/27 01:16:50;;;;;;;;;;;28.60;71.70;;;;;;5093135;28;19945;-69
2022/07/27 01:19:16;;;;;;;;;;;28.60;71.70;;;;;;5092782;28;20003;-70
2022/07/27 01:21:42;;;;;;;;;;;28.60;71.40;;;;;;5093217;28;19919;-69
2022/07/27 01:24:09;;;;;;;;;;;28.60;71.60;;;;;;5093000;28;19908;-70
2022/07/27 01:26:36;;;;;;;;;;;28.60;72.10;;;;;;5093007;28;20271;-70
2022/07/27 01:29:02;;;;;;;;;;;28.50;72.50;;;;;;5093147;28;20329;-70
2022/07/27 01:31:28;;;;;;;;;;;28.50;72.30;;;;;;5092856;28;19915;-70
2022/07/27 01:33:54;;;;;;;;;;;28.50;72.50;;;;;;5092485;28;19943;-70
2022/07/27 01:36:20;;;;;;;;;;;28.50;72.80;;;;;;5093277;28;20041;-70
2022/07/27 01:38:46;;;;;;;;;;;28.40;72.90;;;;;;5092922;28;20434;-70
2022/07/27 01:41:12;;;;;;;;;;;28.40;73.00;;;;;;5091388;28;19988;-69
2022/07/27 01:43:38;;;;;;;;;;;28.40;73.00;;;;;;5092665;28;19908;-69
2022/07/27 01:46:04;;;;;;;;;;;28.40;73.00;;;;;;5091071;28;19980;-70
2022/07/27 01:48:30;;;;;;;;;;;28.40;74.00;;;;;;5093001;28;20401;-69
2022/07/27 01:50:56;;;;;;;;;;;28.40;73.00;;;;;;5092630;28;19904;-69
2022/07/27 01:53:22;;;;;;;;;;;28.50;72.60;;;;;;5092749;28;19998;-69
2022/07/27 01:55:48;;;;;;;;;;;28.50;72.50;;;;;;5092416;28;19943;-69
2022/07/27 01:58:14;;;;;;;;;;;28.50;72.70;;;;;;5092877;28;20003;-70
2022/07/27 02:00:40;;;;;;;;;;;28.40;73.00;;;;;;5092228;28;20003;-69
2022/07/27 02:03:07;;;;;;;;;;;28.40;73.00;;;;;;5092140;28;19904;-69
2022/07/27 02:05:33;;;;;;;;;;;28.40;72.90;;;;;;5092147;28;19912;-69
2022/07/27 02:07:58;;;;;;;;;;;28.50;73.10;;;;;;5092257;28;19907;-69
2022/07/27 02:10:24;;;;;;;;;;;28.40;73.40;;;;;;5091966;28;19904;-70
2022/07/27 02:12:50;;;;;;;;;;;28.30;73.80;;;;;;5092041;28;19911;-70
2022/07/27 02:15:20;;;;;;;;;;;28.30;73.60;;;;;;5092291;28;20263;-69
2022/07/27 02:17:47;;;;;;;;;;;28.20;73.90;;;;;;5090477;28;19907;-70
2022/07/27 02:20:13;;;;;;;;;;;28.30;74.10;;;;;;5091742;28;19977;-69
2022/07/27 02:22:39;;;;;;;;;;;28.30;74.30;;;;;;5091849;28;19957;-69
2022/07/27 02:25:05;;;;;;;;;;;28.30;73.90;;;;;;5091814;28;19908;-68
2022/07/27 02:27:31;;;;;;;;;;;28.30;74.00;;;;;;5092301;28;20306;-68
2022/07/27 02:29:58;;;;;;;;;;;28.20;74.60;;;;;;5091466;28;20316;-68
2022/07/27 02:32:24;;;;;;;;;;;28.20;74.60;;;;;;5091407;28;19908;-69
2022/07/27 02:34:50;;;;;;;;;;;28.20;74.80;;;;;;5091548;28;19915;-70
2022/07/27 02:37:15;;;;;;;;;;;28.10;75.00;;;;;;5091598;28;19904;-69
2022/07/27 02:39:41;;;;;;;;;;;28.20;74.90;;;;;;5090881;28;19915;-70
2022/07/27 02:42:07;;;;;;;;;;;28.20;74.50;;;;;;5089820;28;19916;-69
2022/07/27 02:44:33;;;;;;;;;;;28.20;74.40;;;;;;5089854;28;20375;-69
2022/07/27 02:46:59;;;;;;;;;;;28.20;74.30;;;;;;5091491;28;19911;-68
2022/07/27 02:49:25;;;;;;;;;;;28.20;73.90;;;;;;5091392;28;19903;-69
2022/07/27 02:51:51;;;;;;;;;;;28.20;74.00;;;;;;5091731;28;19918;-69
2022/07/27 02:54:18;;;;;;;;;;;28.10;74.10;;;;;;5092442;28;19908;-70
2022/07/27 02:56:43;;;;;;;;;;;28.10;74.30;;;;;;5092511;28;20268;-68
2022/07/27 02:59:09;;;;;;;;;;;28.10;74.30;;;;;;5092413;28;19904;-69
2022/07/27 03:01:36;;;;;;;;;;;28.10;74.20;;;;;;5091797;28;19916;-69
2022/07/27 03:04:02;;;;;;;;;;;28.10;74.20;;;;;;5092139;28;20030;-69
2022/07/27 03:06:28;;;;;;;;;;;28.10;74.30;;;;;;5092122;28;19943;-69
2022/07/27 03:08:56;;;;;;;;;;;28.10;74.10;;;;;;5091923;28;19957;-69
2022/07/27 03:11:21;;;;;;;;;;;28.10;74.00;;;;;;5091833;28;19904;-69
2022/07/27 03:13:47;;;;;;;;;;;28.10;74.00;;;;;;5092264;28;19908;-69
2022/07/27 03:16:13;;;;;;;;;;;28.00;74.30;;;;;;5091868;28;20072;-70
2022/07/27 03:18:39;;;;;;;;;;;28.10;74.30;;;;;;5091802;28;20003;-69
2022/07/27 03:21:05;;;;;;;;;;;28.10;74.40;;;;;;5091787;28;19916;-70
2022/07/27 03:23:31;;;;;;;;;;;28.10;74.50;;;;;;5092552;28;19904;-70
2022/07/27 03:25:57;;;;;;;;;;;28.10;74.70;;;;;;5092519;28;20249;-70
2022/07/27 03:28:22;;;;;;;;;;;28.00;74.60;;;;;;5092813;28;19904;-70
2022/07/27 03:30:48;;;;;;;;;;;28.00;74.50;;;;;;5092419;28;20197;-71
2022/07/27 03:33:14;;;;;;;;;;;28.00;75.40;;;;;;5092462;28;19914;-70
2022/07/27 03:35:40;;;;;;;;;;;28.00;74.60;;;;;;5092810;28;19934;-70
2022/07/27 03:38:06;;;;;;;;;;;28.00;74.60;;;;;;5091033;28;20283;-70
2022/07/27 03:40:32;;;;;;;;;;;28.00;74.60;;;;;;5092577;28;20229;-71
2022/07/27 03:42:58;;;;;;;;;;;27.90;74.60;;;;;;5091823;28;19918;-70
2022/07/27 03:45:24;;;;;;;;;;;27.90;74.60;;;;;;5092181;28;19999;-70
2022/07/27 03:47:50;;;;;;;;;;;27.90;74.40;;;;;;5092098;28;20409;-70
2022/07/27 03:50:16;;;;;;;;;;;27.90;74.50;;;;;;5091326;28;20313;-70
2022/07/27 03:52:42;;;;;;;;;;;27.90;74.50;;;;;;5092154;28;20131;-70
2022/07/27 03:55:08;;;;;;;;;;;27.90;74.60;;;;;;5092510;28;20001;-70
2022/07/27 03:57:34;;;;;;;;;;;27.80;74.50;;;;;;5092081;28;19904;-69
2022/07/27 04:00:00;;;;;;;;;;;27.70;74.50;;;;;;5092088;28;19904;-69
2022/07/27 04:02:26;;;;;;;;;;;27.70;74.50;;;;;;5091720;28;19962;-69
2022/07/27 04:04:52;;;;;;;;;;;27.80;74.50;;;;;;5091927;28;20037;-69
2022/07/27 04:07:18;;;;;;;;;;;27.70;74.60;;;;;;5091822;28;20262;-69
2022/07/27 04:09:43;;;;;;;;;;;27.70;74.90;;;;;;5091888;28;19915;-69
2022/07/27 04:12:09;;;;;;;;;;;27.70;74.90;;;;;;5092014;28;20341;-68
2022/07/27 04:14:35;;;;;;;;;;;27.60;75.00;;;;;;5091861;28;19904;-69
2022/07/27 04:17:01;;;;;;;;;;;27.70;74.70;;;;;;5090640;28;19969;-69
2022/07/27 04:19:26;;;;;;;;;;;27.70;74.50;;;;;;5092369;28;19943;-69
2022/07/27 04:21:52;;;;;;;;;;;27.60;74.40;;;;;;5092922;28;19923;-69
2022/07/27 04:24:18;;;;;;;;;;;27.70;74.40;;;;;;5091542;28;19904;-69
2022/07/27 04:26:44;;;;;;;;;;;27.70;74.30;;;;;;5091163;28;19916;-69
2022/07/27 04:29:10;;;;;;;;;;;27.70;74.30;;;;;;5092781;28;20360;-69
2022/07/27 04:31:36;;;;;;;;;;;27.70;74.30;;;;;;5092245;28;20354;-69
2022/07/27 04:34:01;;;;;;;;;;;27.80;74.40;;;;;;5090911;28;19904;-69
2022/07/27 04:36:27;;;;;;;;;;;27.90;74.20;;;;;;5092252;28;20003;-70
2022/07/27 04:38:53;;;;;;;;;;;27.90;74.30;;;;;;5092551;28;19957;-69
2022/07/27 04:41:19;;;;;;;;;;;28.00;74.30;;;;;;5092046;28;19958;-69
2022/07/27 04:43:45;;;;;;;;;;;28.00;74.20;;;;;;5092876;28;19930;-69
2022/07/27 04:46:16;;;;;;;;;;;28.10;74.10;;;;;;5092609;28;20308;-69
2022/07/27 04:48:42;;;;;;;;;;;28.10;74.10;;;;;;5092856;28;19904;-69
2022/07/27 04:51:12;;;;;;;;;;;28.20;74.30;;;;;;5090936;28;20390;-69
2022/07/27 04:53:39;;;;;;;;;;;28.10;74.60;;;;;;5090935;28;19911;-69
2022/07/27 04:56:05;;;;;;;;;;;28.10;74.80;;;;;;5092608;28;19957;-69
2022/07/27 04:58:31;;;;;;;;;;;28.20;74.70;;;;;;5092217;28;20232;-69
2022/07/27 05:00:56;;;;;;;;;;;28.20;74.70;;;;;;5092333;28;20016;-69
2022/07/27 05:03:22;;;;;;;;;;;28.30;74.50;;;;;;5096085;28;20366;-69
2022/07/27 05:05:48;;;;;;;;;;;28.40;74.10;;;;;;5095838;28;19904;-69
2022/07/27 05:08:14;;;;;;;;;;;28.50;73.80;;;;;;5095587;28;19904;-70
2022/07/27 05:10:40;;;;;;;;;;;28.40;73.90;;;;;;5095932;28;19927;-70
2022/07/27 05:13:05;;;;;;;;;;;28.40;73.70;;;;;;5095899;28;19911;-70
2022/07/27 05:15:32;;;;;;;;;;;28.60;73.60;;;;;;5093697;28;19912;-70
2022/07/27 05:17:58;;;;;;;;;;;29.10;72.50;;;;;;5095561;28;19954;-70
2022/07/27 05:20:24;;;;;;;;;;;29.30;72.30;;;;;;5094911;28;19946;-69
2022/07/27 05:22:50;;;;;;;;;;;29.60;71.90;;;;;;5095419;28;20332;-70
2022/07/27 05:25:15;;;;;;;;;;;30.10;71.00;;;;;;5094444;28;20017;-70
2022/07/27 05:27:41;;;;;;;;;;;30.80;70.10;;;;;;5094586;28;19911;-70
2022/07/27 05:30:08;;;;;;;;;;;31.30;69.20;;;;;;5094825;28;19915;-70
2022/07/27 05:32:34;;;;;;;;;;;31.80;68.30;;;;;;5094342;28;20347;-70
2022/07/27 05:35:00;;;;;;;;;;;32.20;67.60;;;;;;5094662;28;20021;-70
2022/07/27 05:37:25;;;;;;;;;;;32.50;67.10;;;;;;5094544;28;19904;-70
2022/07/27 05:39:51;;;;;;;;;;;32.70;67.40;;;;;;5094393;28;19922;-70
2022/07/27 05:42:17;;;;;;;;;;;32.90;65.90;;;;;;5094245;28;20364;-70
2022/07/27 05:44:43;;;;;;;;;;;33.20;66.10;;;;;;5094305;28;19969;-70
2022/07/27 05:47:09;;;;;;;;;;;33.50;64.80;;;;;;5094030;28;19908;-70
2022/07/27 05:49:34;;;;;;;;;;;33.80;64.10;;;;;;5093851;28;19994;-70
2022/07/27 05:52:00;;;;;;;;;;;34.40;63.40;;;;;;5093982;28;20316;-70
2022/07/27 05:54:26;;;;;;;;;;;35.10;62.80;;;;;;5093500;28;20229;-68
2022/07/27 05:56:52;;;;;;;;;;;35.90;61.20;;;;;;5093873;28;19904;-70
2022/07/27 05:59:18;;;;;;;;;;;36.10;60.70;;;;;;5094010;28;19907;-69
2022/07/27 06:01:43;;;;;;;;;;;36.40;60.20;;;;;;5093678;28;20268;-69
2022/07/27 06:04:09;;;;;;;;;;;36.80;59.50;;;;;;5093690;28;19924;-71
2022/07/27 06:09:19;;;;;;;;;;;36.70;59.20;;;;;;5093856;28;20274;-69
2022/07/27 06:11:45;;;;;;;;;;;37.30;58.10;;;;;;5093587;28;20353;-70
2022/07/27 06:14:10;;;;;;;;;;;37.30;57.80;;;;;;5092644;28;19904;-70
2022/07/27 06:16:37;;;;;;;;;;;37.30;58.20;;;;;;5093702;28;20349;-70
2022/07/27 06:19:03;;;;;;;;;;;37.20;58.00;;;;;;5093796;28;19912;-70
2022/07/27 06:21:29;;;;;;;;;;;38.10;57.40;;;;;;5093820;28;20399;-70
2022/07/27 06:23:54;;;;;;;;;;;39.30;56.10;;;;;;5093561;28;19954;-70
2022/07/27 06:26:20;;;;;;;;;;;40.60;54.80;;;;;;5093817;28;19911;-70
2022/07/27 06:28:46;;;;;;;;;;;40.80;53.60;;;;;;5093419;28;20010;-71
2022/07/27 06:31:12;;;;;;;;;;;40.90;53.80;;;;;;5093615;28;20359;-70
2022/07/27 06:33:39;;;;;;;;;;;41.80;53.60;;;;;;5093695;28;19904;-70
2022/07/27 06:36:07;;;;;;;;;;;43.40;51.80;;;;;;5093496;28;20249;-70
2022/07/27 06:38:33;;;;;;;;;;;44.80;50.20;;;;;;5093695;28;19911;-70
2022/07/27 06:40:59;;;;;;;;;;;45.90;48.80;;;;;;5091969;28;19935;-70
2022/07/27 06:43:26;;;;;;;;;;;46.90;46.80;;;;;;5093646;28;19990;-70
2022/07/27 06:45:55;;;;;;;;;;;47.70;45.70;;;;;;5093605;28;19911;-71
2022/07/27 06:48:20;;;;;;;;;;;48.10;46.30;;;;;;5092163;28;20431;-71
2022/07/27 06:50:47;;;;;;;;;;;48.70;45.20;;;;;;5091816;28;20002;-70
2022/07/27 06:53:13;;;;;;;;;;;49.30;43.60;;;;;;5093819;28;19904;-70
2022/07/27 06:55:38;;;;;;;;;;;49.60;42.90;;;;;;5093464;28;20243;-70
2022/07/27 06:58:04;;;;;;;;;;;50.00;42.80;;;;;;5093607;28;19948;-70
2022/07/27 07:00:30;;;;;;;;;;;50.50;42.50;;;;;;5093247;28;20011;-70
2022/07/27 07:02:57;;;;;;;;;;;50.80;41.80;;;;;;5093433;28;19911;-71
2022/07/27 07:05:24;;;;;;;;;;;51.00;41.30;;;;;;5093765;28;19904;-70
2022/07/27 07:07:49;;;;;;;;;;;51.00;40.80;;;;;;5093238;28;20360;-70
2022/07/27 07:10:15;;;;;;;;;;;51.30;40.50;;;;;;5093617;28;19904;-71
2022/07/27 07:12:41;;;;;;;;;;;51.50;40.40;;;;;;5092964;28;20285;-71
2022/07/27 07:15:08;;;;;;;;;;;50.20;40.00;;;;;;5092942;28;19915;-71
2022/07/27 07:17:33;;;;;;;;;;;50.40;40.30;;;;;;5093632;28;20218;-71
2022/07/27 07:19:59;;;;;;;;;;;50.30;40.60;;;;;;5092507;28;19988;-71
2022/07/27 07:22:25;;;;;;;;;;;49.40;41.60;;;;;;5092630;28;19955;-69
2022/07/27 07:24:51;;;;;;;;;;;48.50;42.50;;;;;;5092274;28;20356;-69
2022/07/27 07:27:22;;;;;;;;;;;47.40;43.10;;;;;;5092826;28;19904;-70
2022/07/27 07:29:48;;;;;;;;;;;46.10;44.10;;;;;;5092686;28;19962;-69
2022/07/27 07:32:15;;;;;;;;;;;45.70;45.30;;;;;;5092954;28;19904;-69
2022/07/27 07:34:41;;;;;;;;;;;45.10;45.70;;;;;;5092604;28;20041;-70
2022/07/27 07:37:07;;;;;;;;;;;44.50;46.40;;;;;;5092452;28;19999;-70
2022/07/27 07:39:33;;;;;;;;;;;43.90;46.40;;;;;;5092535;28;20090;-70
2022/07/27 07:41:59;;;;;;;;;;;43.30;47.40;;;;;;5092330;28;19912;-69
2022/07/27 07:44:25;;;;;;;;;;;42.60;47.60;;;;;;5092477;28;19904;-70
2022/07/27 07:46:50;;;;;;;;;;;42.20;48.60;;;;;;5092270;28;19964;-70
2022/07/27 07:49:16;;;;;;;;;;;41.20;49.60;;;;;;5091783;28;19927;-69
2022/07/27 07:51:42;;;;;;;;;;;40.70;50.30;;;;;;5091498;28;20035;-69
2022/07/27 07:54:09;;;;;;;;;;;40.60;50.10;;;;;;5091710;28;19915;-69
2022/07/27 07:56:35;;;;;;;;;;;39.90;50.40;;;;;;5091097;28;19911;-70
2022/07/27 07:59:03;;;;;;;;;;;39.70;50.30;;;;;;5091674;28;19904;-70
2022/07/27 08:01:29;;;;;;;;;;;39.30;51.00;;;;;;5091558;28;19958;-70
2022/07/27 08:03:55;;;;;;;;;;;39.40;51.10;;;;;;5091740;28;19907;-71
2022/07/27 08:06:21;;;;;;;;;;;39.60;51.20;;;;;;5091637;28;19917;-70
2022/07/27 08:08:46;;;;;;;;;;;39.10;51.20;;;;;;5091699;28;19904;-70
2022/07/27 08:11:12;;;;;;;;;;;38.90;51.60;;;;;;5091526;28;19912;-70
2022/07/27 08:13:38;;;;;;;;;;;38.50;51.80;;;;;;5091849;28;19904;-69
2022/07/27 08:16:04;;;;;;;;;;;38.40;52.20;;;;;;5091623;28;19996;-69
2022/07/27 08:18:30;;;;;;;;;;;38.60;52.40;;;;;;5092389;28;20270;-70
2022/07/27 08:20:56;;;;;;;;;;;38.90;52.30;;;;;;5092437;28;19939;-70
2022/07/27 08:23:22;;;;;;;;;;;39.30;51.80;;;;;;5092441;28;19947;-71
2022/07/27 08:25:47;;;;;;;;;;;39.40;51.50;;;;;;5092499;28;19991;-69
2022/07/27 08:28:13;;;;;;;;;;;39.00;51.50;;;;;;5092595;28;20348;-69
2022/07/27 08:30:39;;;;;;;;;;;39.00;51.80;;;;;;5091955;28;19923;-69
2022/07/27 08:33:05;;;;;;;;;;;39.20;51.40;;;;;;5091953;28;19904;-70
2022/07/27 08:35:32;;;;;;;;;;;39.30;51.20;;;;;;5092017;28;19904;-69
2022/07/27 08:37:58;;;;;;;;;;;39.50;51.30;;;;;;5095226;28;19962;-69
2022/07/27 08:40:24;;;;;;;;;;;39.20;51.40;;;;;;5095662;28;19912;-69
2022/07/27 08:42:50;;;;;;;;;;;39.30;51.40;;;;;;5095694;28;19904;-70
2022/07/27 08:45:17;;;;;;;;;;;39.20;51.40;;;;;;5096031;28;19998;-70
2022/07/27 08:47:44;;;;;;;;;;;39.20;51.20;;;;;;5095400;28;19991;-70
2022/07/27 08:50:24;;;;;;;;;;;39.20;51.70;;;;;;5094743;28;20018;-69
2022/07/27 08:52:53;;;;;;;;;;;38.80;51.20;;;;;;5095252;28;19935;-69
2022/07/27 08:55:20;;;;;;;;;;;38.60;52.20;;;;;;5093355;28;19911;-69
2022/07/27 08:57:46;;;;;;;;;;;38.80;52.00;;;;;;5095299;28;19904;-70
2022/07/27 09:00:12;;;;;;;;;;;39.10;51.90;;;;;;5094736;28;19911;-69
2022/07/27 09:02:39;;;;;;;;;;;38.80;50.90;;;;;;5094725;28;20007;-69
2022/07/27 09:05:06;;;;;;;;;;;38.70;51.50;;;;;;5095048;28;20212;-70
2022/07/27 09:07:31;;;;;;;;;;;38.70;51.20;;;;;;5095036;28;20294;-70
2022/07/27 09:09:58;;;;;;;;;;;38.30;52.20;;;;;;5095100;28;19904;-70
2022/07/27 09:12:28;;;;;;;;;;;38.20;53.10;;;;;;5093171;28;19904;-70
2022/07/27 09:15:04;;;;;;;;;;;38.10;52.30;;;;;;5094931;28;20340;-71
2022/07/27 09:17:30;;;;;;;;;;;37.60;52.80;;;;;;5094872;28;19995;-71
2022/07/27 09:19:59;;;;;;;;;;;37.40;53.60;;;;;;5094736;28;19951;-70
2022/07/27 09:22:38;;;;;;;;;;;36.80;53.20;;;;;;5094600;28;19919;-69
2022/07/27 09:25:05;;;;;;;;;;;36.90;54.40;;;;;;5094774;28;19903;-70
2022/07/27 09:27:31;;;;;;;;;;;37.10;53.80;;;;;;5094754;28;20038;-70
2022/07/27 09:30:01;;;;;;;;;;;37.30;53.40;;;;;;5094832;28;20000;-70
2022/07/27 09:32:27;;;;;;;;;;;37.10;53.70;;;;;;5094821;28;19957;-70
2022/07/27 09:34:53;;;;;;;;;;;36.80;53.80;;;;;;5094711;28;20334;-70
2022/07/27 09:37:22;;;;;;;;;;;36.60;53.70;;;;;;5094930;28;19915;-69
2022/07/27 09:39:48;;;;;;;;;;;36.50;54.70;;;;;;5094300;28;19915;-70
2022/07/27 09:42:15;;;;;;;;;;;36.30;55.00;;;;;;5092865;28;19923;-69
2022/07/27 09:44:41;;;;;;;;;;;36.20;55.10;;;;;;5092685;28;20245;-70
2022/07/27 09:47:21;;;;;;;;;;;36.50;55.50;;;;;;5094442;28;20300;-70
2022/07/27 09:49:47;;;;;;;;;;;36.40;55.20;;;;;;5094012;28;20041;-71
2022/07/27 09:52:27;;;;;;;;;;;36.50;54.90;;;;;;5094159;28;19943;-70
2022/07/27 09:54:53;;;;;;;;;;;36.50;55.30;;;;;;5093589;28;19904;-70
2022/07/27 09:57:19;;;;;;;;;;;36.50;56.30;;;;;;5093656;28;19908;-70
2022/07/27 09:59:45;;;;;;;;;;;36.50;57.30;;;;;;5093721;28;19998;-70
2022/07/27 10:02:13;;;;;;;;;;;36.50;56.40;;;;;;5093344;28;19919;-70
2022/07/27 10:04:42;;;;;;;;;;;36.30;57.10;;;;;;5093630;28;19911;-71
2022/07/27 10:07:08;;;;;;;;;;;36.40;56.80;;;;;;5091859;28;20318;-70
2022/07/27 10:09:34;;;;;;;;;;;36.10;57.10;;;;;;5092049;28;20298;-70
2022/07/27 10:12:00;;;;;;;;;;;36.20;56.60;;;;;;5093199;28;19904;-71
2022/07/27 10:14:26;;;;;;;;;;;36.50;55.00;;;;;;5092163;28;19904;-70
2022/07/27 10:16:52;;;;;;;;;;;36.70;53.40;;;;;;5093010;28;19962;-70
2022/07/27 10:19:21;;;;;;;;;;;36.90;53.90;;;;;;5093220;28;19995;-70
2022/07/27 10:21:47;;;;;;;;;;;36.90;54.90;;;;;;5093743;28;20352;-70
2022/07/27 10:24:32;;;;;;;;;;;37.00;55.30;;;;;;5093616;28;19915;-70
2022/07/27 10:26:58;;;;;;;;;;;37.10;54.50;;;;;;5093693;28;19915;-71
2022/07/27 10:29:24;;;;;;;;;;;37.10;52.60;;;;;;5093390;28;20101;-69
2022/07/27 10:31:53;;;;;;;;;;;37.10;52.20;;;;;;5093333;28;20000;-69
2022/07/27 10:34:39;;;;;;;;;;;37.10;52.20;;;;;;5093413;28;19981;-70
2022/07/27 10:37:12;;;;;;;;;;;37.10;52.80;;;;;;5092775;28;19973;-70
2022/07/27 10:39:42;;;;;;;;;;;37.10;52.20;;;;;;5093342;28;20356;-69
2022/07/27 10:42:23;;;;;;;;;;;37.00;53.00;;;;;;5093799;28;19915;-71
2022/07/27 10:44:59;;;;;;;;;;;36.40;54.10;;;;;;5093638;28;20387;-70
2022/07/27 10:47:32;;;;;;;;;;;36.40;54.90;;;;;;5092280;28;19911;-69
2022/07/27 10:50:21;;;;;;;;;;;36.60;55.00;;;;;;5093652;28;19904;-70
2022/07/27 10:52:54;;;;;;;;;;;36.70;55.30;;;;;;5081661;28;20364;-70
2022/07/27 10:55:29;;;;;;;;;;;36.80;56.50;;;;;;5092184;28;19961;-72
2022/07/27 10:57:55;;;;;;;;;;;36.90;57.80;;;;;;5090680;28;19904;-70
2022/07/27 11:00:41;;;;;;;;;;;36.70;59.30;;;;;;5091821;28;20271;-70
2022/07/27 11:03:07;;;;;;;;;;;36.70;61.90;;;;;;5092496;28;19915;-70
2022/07/27 11:05:33;;;;;;;;;;;36.60;64.30;;;;;;5090928;28;19904;-70
2022/07/27 11:07:59;;;;;;;;;;;36.30;66.30;;;;;;5092698;28;20006;-70
2022/07/27 11:10:26;;;;;;;;;;;36.30;67.60;;;;;;5091958;28;19904;-70
2022/07/27 11:12:52;;;;;;;;;;;36.40;68.80;;;;;;5091769;28;19926;-70
2022/07/27 11:15:18;;;;;;;;;;;36.50;70.20;;;;;;5091869;28;20262;-69
2022/07/27 11:17:47;;;;;;;;;;;36.50;73.10;;;;;;5092382;28;19904;-70
2022/07/27 11:20:13;;;;;;;;;;;36.60;74.10;;;;;;5092236;28;20244;-69
2022/07/27 11:22:40;;;;;;;;;;;36.50;75.80;;;;;;5093259;28;19986;-70
2022/07/27 11:25:06;;;;;;;;;;;36.50;75.90;;;;;;5091392;28;19903;-71
2022/07/27 11:27:32;;;;;;;;;;;36.60;76.10;;;;;;5091512;28;20378;-71
2022/07/27 11:29:58;;;;;;;;;;;36.60;78.50;;;;;;5091506;28;19908;-70
2022/07/27 11:32:24;;;;;;;;;;;36.70;79.70;;;;;;5092560;28;19904;-69
2022/07/27 11:34:50;;;;;;;;;;;36.80;80.50;;;;;;5092579;28;19965;-70
2022/07/27 11:37:22;;;;;;;;;;;36.70;81.30;;;;;;5092686;28;20322;-71
2022/07/27 11:39:56;;;;;;;;;;;36.60;82.40;;;;;;5092415;28;20291;-69
2022/07/27 11:42:22;;;;;;;;;;;36.50;82.90;;;;;;5092542;28;20002;-70
2022/07/27 11:44:48;;;;;;;;;;;36.50;83.60;;;;;;5092253;28;20058;-70
2022/07/27 11:47:18;;;;;;;;;;;36.50;80.80;;;;;;5092315;28;19904;-70
2022/07/27 11:49:44;;;;;;;;;;;36.60;82.40;;;;;;5092478;28;20012;-71
2022/07/27 11:52:10;;;;;;;;;;;36.80;81.70;;;;;;5092432;28;19994;-70
2022/07/27 11:54:38;;;;;;;;;;;36.80;83.40;;;;;;5092253;28;20319;-70
2022/07/27 11:57:07;;;;;;;;;;;36.80;80.50;;;;;;5091650;28;19904;-70
2022/07/27 11:59:38;;;;;;;;;;;36.80;81.80;;;;;;5092297;28;19957;-70
2022/07/27 12:02:05;;;;;;;;;;;36.80;81.00;;;;;;5091669;28;19912;-70
2022/07/27 12:04:32;;;;;;;;;;;37.00;79.70;;;;;;5090791;28;20318;-71
2022/07/27 12:07:04;;;;;;;;;;;36.90;78.70;;;;;;5091984;28;19904;-71
2022/07/27 12:09:31;;;;;;;;;;;37.00;78.60;;;;;;5092099;28;19995;-71
2022/07/27 12:12:03;;;;;;;;;;;37.10;77.10;;;;;;5094178;28;19904;-71
2022/07/27 12:14:39;;;;;;;;;;;37.20;74.60;;;;;;5096353;28;19954;-70
2022/07/27 12:17:08;;;;;;;;;;;37.10;75.50;;;;;;5096738;28;20018;-70
2022/07/27 12:19:34;;;;;;;;;;;37.10;72.30;;;;;;5096369;28;19951;-70
2022/07/27 12:22:01;;;;;;;;;;;37.20;72.70;;;;;;5096908;28;19954;-70
2022/07/27 12:24:32;;;;;;;;;;;37.30;73.10;;;;;;5096227;28;19908;-70
2022/07/27 12:27:04;;;;;;;;;;;37.40;73.10;;;;;;5096192;28;19904;-70
2022/07/27 12:29:30;;;;;;;;;;;37.60;73.10;;;;;;5096484;28;19904;-70
2022/07/27 12:32:00;;;;;;;;;;;37.60;71.00;;;;;;5096256;28;19927;-71
2022/07/27 12:34:30;;;;;;;;;;;37.60;68.40;;;;;;5094523;28;19950;-71
2022/07/27 12:36:56;;;;;;;;;;;37.70;66.50;;;;;;5096257;28;19991;-70
2022/07/27 12:39:26;;;;;;;;;;;37.80;65.50;;;;;;5096184;28;20328;-70
2022/07/27 12:42:02;;;;;;;;;;;38.10;64.80;;;;;;5096163;28;20301;-70
2022/07/27 12:44:32;;;;;;;;;;;38.20;63.90;;;;;;5096205;28;20309;-71
2022/07/27 12:47:00;;;;;;;;;;;38.40;62.80;;;;;;5095869;28;19939;-70
2022/07/27 12:49:33;;;;;;;;;;;38.40;63.70;;;;;;5095796;28;19903;-71
2022/07/27 12:52:09;;;;;;;;;;;38.20;64.20;;;;;;5095632;28;19949;-70
2022/07/27 12:54:36;;;;;;;;;;;38.00;64.40;;;;;;5095588;28;20259;-70
2022/07/27 12:57:02;;;;;;;;;;;37.80;64.20;;;;;;5094965;28;19986;-71
2022/07/27 12:59:28;;;;;;;;;;;38.00;63.00;;;;;;5093807;28;19999;-69
2022/07/27 13:01:55;;;;;;;;;;;38.10;62.50;;;;;;5095101;28;20014;-70
2022/07/27 13:04:21;;;;;;;;;;;38.10;61.40;;;;;;5094646;28;19938;-70
2022/07/27 13:06:47;;;;;;;;;;;38.10;61.90;;;;;;5094784;28;19903;-69
2022/07/27 13:09:13;;;;;;;;;;;38.20;61.90;;;;;;5094689;28;20368;-69
2022/07/27 13:11:39;;;;;;;;;;;38.30;61.60;;;;;;5095108;28;19952;-70
2022/07/27 13:14:06;;;;;;;;;;;38.30;61.30;;;;;;5095020;28;20249;-70
2022/07/27 13:16:32;;;;;;;;;;;38.40;61.10;;;;;;5095505;28;20268;-70
2022/07/27 13:18:58;;;;;;;;;;;38.20;61.10;;;;;;5095248;28;19923;-71
2022/07/27 13:21:23;;;;;;;;;;;38.10;61.40;;;;;;5095350;28;19924;-69
2022/07/27 13:23:50;;;;;;;;;;;38.30;61.70;;;;;;5094772;28;20339;-69
2022/07/27 13:26:15;;;;;;;;;;;38.40;61.70;;;;;;5095303;28;19904;-69
2022/07/27 13:28:41;;;;;;;;;;;38.60;62.20;;;;;;5095078;28;19998;-70
2022/07/27 13:31:07;;;;;;;;;;;38.50;62.70;;;;;;5095575;28;19957;-70
2022/07/27 13:33:33;;;;;;;;;;;38.20;63.00;;;;;;5095213;28;19982;-70
2022/07/27 13:35:59;;;;;;;;;;;38.00;63.00;;;;;;5094948;28;19907;-70
2022/07/27 13:38:25;;;;;;;;;;;38.10;63.20;;;;;;5093588;28;19950;-70
2022/07/27 13:40:50;;;;;;;;;;;38.20;63.10;;;;;;5094909;28;20055;-70
2022/07/27 13:43:18;;;;;;;;;;;38.10;63.20;;;;;;5095291;28;20298;-71
2022/07/27 13:45:43;;;;;;;;;;;38.20;63.40;;;;;;5094788;28;19904;-69
2022/07/27 13:48:10;;;;;;;;;;;38.20;63.30;;;;;;5095136;28;19904;-69
2022/07/27 13:50:37;;;;;;;;;;;38.40;63.30;;;;;;5095309;28;19952;-69
2022/07/27 13:53:03;;;;;;;;;;;38.60;63.10;;;;;;5094381;28;19908;-70
2022/07/27 13:55:29;;;;;;;;;;;38.40;62.70;;;;;;5094167;28;20002;-70
2022/07/27 13:57:55;;;;;;;;;;;38.50;62.30;;;;;;5094131;28;19904;-69
2022/07/27 14:00:21;;;;;;;;;;;38.30;61.80;;;;;;5094374;28;20213;-69
2022/07/27 14:02:46;;;;;;;;;;;38.10;61.80;;;;;;5094047;28;19911;-69
2022/07/27 14:05:13;;;;;;;;;;;37.90;61.40;;;;;;5093990;28;19915;-71
2022/07/27 14:07:39;;;;;;;;;;;38.20;61.30;;;;;;5094286;28;19908;-70
2022/07/27 14:12:49;;;;;;;;;;;38.20;60.80;;;;;;5093854;28;20314;-70
2022/07/27 14:15:15;;;;;;;;;;;38.20;60.60;;;;;;5094011;28;19933;-71
2022/07/27 14:17:40;;;;;;;;;;;38.00;60.70;;;;;;5093970;28;19915;-71
2022/07/27 14:20:07;;;;;;;;;;;37.90;60.90;;;;;;5093690;28;19915;-69
2022/07/27 14:22:33;;;;;;;;;;;38.00;61.00;;;;;;5094001;28;19912;-71